createdAt,value
2022-08-17T00:00:43.100Z,85.25
2022-08-17T00:03:13.649Z,84.58
2022-08-17T00:05:48.502Z,85.24
2022-08-17T00:08:21.532Z,85.68
2022-08-17T00:10:51.805Z,86.62
2022-08-17T00:13:24.700Z,86.96
2022-08-17T00:15:55.892Z,87.64
2022-08-17T00:19:01.433Z,87.53
2022-08-17T00:21:13.764Z,87.16
2022-08-17T00:23:48.961Z,87.24
2022-08-17T00:26:43.671Z,87.62
2022-08-17T00:29:08.360Z,87.58
2022-08-17T00:31:37.417Z,87.52
2022-08-17T00:34:08.754Z,87.17
2022-08-17T00:36:37.458Z,87.29
2022-08-17T00:39:07.347Z,86.61
2022-08-17T00:41:35.886Z,85.69
2022-08-17T00:44:06.883Z,84.33
2022-08-17T00:46:39.336Z,85.63
2022-08-17T00:49:09.761Z,85.77
2022-08-17T00:51:45.256Z,86.32
2022-08-17T00:54:19.958Z,86.63
2022-08-17T00:56:53.765Z,87.53
2022-08-17T00:59:26.823Z,87.21
2022-08-17T01:01:55.621Z,86.38
2022-08-17T01:04:24.781Z,85.48
2022-08-17T01:06:54.328Z,85.61
2022-08-17T01:09:24.259Z,84.49
2022-08-17T01:11:53.017Z,84.64
2022-08-17T01:14:22.384Z,83.84
2022-08-17T01:16:53.143Z,83.60
2022-08-17T01:19:24.945Z,82.91
2022-08-17T01:22:00.280Z,83.18
2022-08-17T01:24:31.103Z,84.00
2022-08-17T01:27:02.713Z,84.01
2022-08-17T01:29:42.392Z,84.76
2022-08-17T01:32:11.313Z,84.61
2022-08-17T01:34:43.353Z,84.44
2022-08-17T01:37:12.844Z,85.02
2022-08-17T01:39:45.970Z,85.02
2022-08-17T01:42:27.521Z,85.36
2022-08-17T01:45:02.992Z,85.57
2022-08-17T01:47:31.837Z,85.94
2022-08-17T01:50:13.219Z,85.99
2022-08-17T01:52:42.433Z,86.29
2022-08-17T01:55:14.021Z,85.87
2022-08-17T01:57:45.484Z,86.22
2022-08-17T02:00:15.523Z,85.84
2022-08-17T02:02:45.917Z,85.58
2022-08-17T02:05:15.093Z,86.15
2022-08-17T02:08:00.572Z,86.52
2022-08-17T02:10:33.933Z,86.99
2022-08-17T02:13:04.661Z,87.20
2022-08-17T02:15:34.653Z,87.96
2022-08-17T02:18:04.157Z,88.94
2022-08-17T02:20:41.513Z,89.65
2022-08-17T02:23:13.239Z,89.92
2022-08-17T02:25:47.670Z,90.04
2022-08-17T02:28:16.677Z,89.90
2022-08-17T02:31:01.816Z,90.54
2022-08-17T02:33:42.816Z,90.71
2022-08-17T02:36:14.005Z,90.76
2022-08-17T02:38:42.874Z,90.81
2022-08-17T02:41:13.029Z,90.79
2022-08-17T02:43:41.813Z,91.36
2022-08-17T02:46:12.801Z,91.52
2022-08-17T02:48:41.233Z,92.05
2022-08-17T02:51:09.842Z,91.89
2022-08-17T02:53:38.329Z,92.02
2022-08-17T02:56:07.183Z,92.43
2022-08-17T02:58:36.959Z,91.81
2022-08-17T03:01:07.244Z,91.59
2022-08-17T03:03:36.810Z,92.37
2022-08-17T03:06:07.601Z,92.16
2022-08-17T03:08:37.511Z,93.03
2022-08-17T03:11:06.395Z,92.79
2022-08-17T03:13:36.352Z,92.72
2022-08-17T03:16:05.217Z,93.69
2022-08-17T03:18:33.708Z,93.87
2022-08-17T03:21:04.488Z,93.85
2022-08-17T03:23:33.781Z,94.54
2022-08-17T03:26:02.269Z,95.71
2022-08-17T03:28:30.814Z,95.81
2022-08-17T03:31:00.807Z,96.04
2022-08-17T03:33:29.241Z,96.25
2022-08-17T03:35:58.215Z,96.61
2022-08-17T03:38:27.208Z,95.87
2022-08-17T03:40:59.686Z,96.42
2022-08-17T03:43:30.502Z,95.80
2022-08-17T03:46:34.660Z,96.14
2022-08-17T03:49:22.649Z,96.10
2022-08-17T03:52:08.740Z,96.10
2022-08-17T03:54:55.541Z,96.27
2022-08-17T03:57:24.654Z,96.32
2022-08-17T03:59:53.537Z,96.00
2022-08-17T04:02:28.230Z,95.83
2022-08-17T04:04:56.822Z,96.51
2022-08-17T04:07:30.093Z,97.02
2022-08-17T04:09:59.470Z,96.69
2022-08-17T04:12:30.959Z,96.60
2022-08-17T04:14:59.840Z,96.64
2022-08-17T04:17:30.740Z,96.74
2022-08-17T04:19:59.309Z,97.19
2022-08-17T04:22:30.626Z,96.95
2022-08-17T04:25:15.998Z,97.10
2022-08-17T04:27:44.668Z,97.10
2022-08-17T04:30:14.199Z,96.89
2022-08-17T04:33:10.877Z,96.91
2022-08-17T04:35:42.221Z,97.50
2022-08-17T04:38:13.069Z,97.98
2022-08-17T04:40:59.093Z,98.50
2022-08-17T04:43:28.628Z,98.50
2022-08-17T04:45:58.856Z,98.74
2022-08-17T04:48:36.216Z,99.00
2022-08-17T04:51:09.924Z,99.19
2022-08-17T04:53:40.448Z,99.42
2022-08-17T04:56:16.205Z,99.37
2022-08-17T04:58:50.083Z,99.36
2022-08-17T05:01:23.236Z,100.00
2022-08-17T05:03:54.809Z,100.00
2022-08-17T05:06:23.780Z,100.00
2022-08-17T05:08:52.708Z,100.00
2022-08-17T05:11:21.447Z,99.71
2022-08-17T05:13:51.056Z,99.74
2022-08-17T05:16:20.421Z,99.55
2022-08-17T05:18:49.287Z,99.39
2022-08-17T05:21:19.860Z,98.69
2022-08-17T05:23:53.245Z,98.43
2022-08-17T05:26:26.963Z,98.04
2022-08-17T05:28:58.518Z,97.94
2022-08-17T05:31:29.670Z,97.39
2022-08-17T05:33:58.340Z,96.40
2022-08-17T05:36:43.093Z,96.16
2022-08-17T05:39:16.695Z,95.01
2022-08-17T05:41:49.090Z,95.07
2022-08-17T05:44:18.177Z,94.24
2022-08-17T05:46:51.837Z,92.53
2022-08-17T05:49:25.914Z,91.30
2022-08-17T05:52:17.150Z,90.74
2022-08-17T05:55:01.502Z,89.51
2022-08-17T05:57:56.578Z,87.66
2022-08-17T06:00:30.833Z,86.67
2022-08-17T06:03:23.471Z,85.82
2022-08-17T06:06:07.126Z,85.46
2022-08-17T06:08:48.124Z,86.15
2022-08-17T06:11:32.429Z,87.19
2022-08-17T06:14:23.289Z,85.77
2022-08-17T06:16:56.681Z,83.92
2022-08-17T06:19:34.519Z,84.12
2022-08-17T06:22:05.822Z,83.44
2022-08-17T06:24:39.932Z,82.98
2022-08-17T06:27:26.370Z,81.92
2022-08-17T06:29:59.029Z,81.53
2022-08-17T06:32:27.884Z,80.30
2022-08-17T06:34:57.433Z,77.75
2022-08-17T06:38:00.355Z,76.12
2022-08-17T06:40:48.479Z,74.97
2022-08-17T06:43:32.645Z,73.24
2022-08-17T06:46:07.517Z,73.98
2022-08-17T06:48:44.556Z,76.02
2022-08-17T06:51:23.847Z,75.54
2022-08-17T06:54:01.081Z,74.57
2022-08-17T06:56:53.408Z,73.16
2022-08-17T06:59:54.501Z,72.27
2022-08-17T07:02:28.931Z,70.82
2022-08-17T07:05:08.828Z,70.05
2022-08-17T07:07:57.590Z,68.53
2022-08-17T07:10:28.590Z,67.83
2022-08-17T07:13:04.173Z,67.10
2022-08-17T07:15:42.784Z,65.17
2022-08-17T07:18:11.849Z,64.47
2022-08-17T07:20:45.840Z,63.97
2022-08-17T07:23:21.147Z,62.97
2022-08-17T07:25:51.009Z,64.83
2022-08-17T07:28:24.533Z,63.91
2022-08-17T07:30:55.471Z,62.92
2022-08-17T07:33:26.888Z,64.17
2022-08-17T07:35:58.127Z,62.34
2022-08-17T07:38:29.318Z,62.68
2022-08-17T07:41:05.376Z,62.25
2022-08-17T07:43:36.361Z,63.55
2022-08-17T07:46:33.461Z,63.31
2022-08-17T07:49:22.565Z,60.32
2022-08-17T07:52:48.436Z,60.47
2022-08-17T07:54:52.366Z,60.73
2022-08-17T07:57:36.450Z,59.73
2022-08-17T08:00:31.403Z,60.20
2022-08-17T08:03:15.542Z,58.51
2022-08-17T08:05:57.372Z,59.01
2022-08-17T08:08:29.619Z,61.32
2022-08-17T08:11:01.947Z,57.31
2022-08-17T08:13:33.276Z,56.23
2022-08-17T08:16:25.004Z,56.34
2022-08-17T08:18:58.365Z,55.02
2022-08-17T08:21:34.479Z,54.58
2022-08-17T08:24:24.507Z,53.93
2022-08-17T08:27:12.772Z,53.41
2022-08-17T08:29:50.941Z,52.83
2022-08-17T08:32:23.148Z,52.40
2022-08-17T08:35:03.870Z,51.31
2022-08-17T08:37:43.470Z,51.73
2022-08-17T08:40:36.308Z,52.41
2022-08-17T08:43:15.156Z,51.76
2022-08-17T08:45:50.013Z,49.48
2022-08-17T08:48:53.464Z,50.24
2022-08-17T08:51:39.938Z,50.41
2022-08-17T08:54:26.597Z,50.17
2022-08-17T08:57:23.218Z,50.14
2022-08-17T09:00:00.489Z,51.14
2022-08-17T09:02:48.015Z,50.01
2022-08-17T09:05:30.429Z,49.81
2022-08-17T09:08:10.614Z,49.68
2022-08-17T09:11:00.716Z,49.79
2022-08-17T09:13:38.197Z,51.39
2022-08-17T09:16:15.257Z,50.03
2022-08-17T09:19:01.661Z,49.28
2022-08-17T09:21:48.077Z,49.15
2022-08-17T09:24:25.135Z,46.87
2022-08-17T09:26:58.911Z,48.31
2022-08-17T09:29:35.227Z,48.44
2022-08-17T09:32:10.763Z,46.48
2022-08-17T09:34:44.680Z,46.31
2022-08-17T09:37:23.874Z,45.06
2022-08-17T09:40:02.504Z,44.53
2022-08-17T09:42:37.063Z,44.31
2022-08-17T09:45:18.151Z,45.22
2022-08-17T09:47:51.323Z,43.65
2022-08-17T09:51:03.586Z,42.28
2022-08-17T09:53:13.049Z,43.50
2022-08-17T09:56:03.530Z,44.19
2022-08-17T09:58:47.678Z,43.37
2022-08-17T10:01:27.518Z,42.14
2022-08-17T10:04:26.032Z,40.99
2022-08-17T10:07:04.571Z,40.98
2022-08-17T10:09:45.810Z,41.08
2022-08-17T10:12:30.079Z,40.10
2022-08-17T10:15:15.579Z,40.82
2022-08-17T10:18:07.714Z,41.63
2022-08-17T10:21:13.313Z,40.10
2022-08-17T10:24:01.983Z,39.21
2022-08-17T10:26:46.235Z,39.05
2022-08-17T10:29:48.355Z,38.39
2022-08-17T10:32:32.143Z,37.12
2022-08-17T10:35:36.094Z,36.18
2022-08-17T10:38:39.889Z,34.55
2022-08-17T10:41:24.118Z,33.28
2022-08-17T10:44:38.494Z,34.04
2022-08-17T10:46:59.286Z,35.05
2022-08-17T10:49:33.135Z,32.97
2022-08-17T10:52:03.556Z,33.32
2022-08-17T10:54:47.655Z,32.86
2022-08-17T10:57:38.904Z,34.70
2022-08-17T11:00:15.478Z,32.78
2022-08-17T11:02:50.443Z,32.25
2022-08-17T11:05:44.401Z,31.98
2022-08-17T11:08:51.081Z,32.02
2022-08-17T11:11:35.851Z,32.20
2022-08-17T11:14:26.413Z,31.09
2022-08-17T11:17:13.021Z,31.38
2022-08-17T11:20:20.406Z,31.20
2022-08-17T11:23:20.169Z,30.13
2022-08-17T11:25:54.221Z,31.06
2022-08-17T11:28:28.058Z,32.47
2022-08-17T11:31:00.413Z,32.98
2022-08-17T11:33:58.882Z,32.43
2022-08-17T11:36:52.128Z,33.65
2022-08-17T11:39:42.721Z,34.42
2022-08-17T11:42:26.439Z,33.04
2022-08-17T11:44:59.049Z,31.73
2022-08-17T11:48:16.100Z,31.04
2022-08-17T11:51:06.841Z,29.77
2022-08-17T11:54:28.955Z,30.79
2022-08-17T11:56:51.124Z,30.38
2022-08-17T11:59:54.364Z,30.71
2022-08-17T12:02:39.002Z,31.95
2022-08-17T12:05:32.553Z,31.87
2022-08-17T12:08:11.918Z,30.31
2022-08-17T12:10:53.918Z,30.72
2022-08-17T12:13:30.485Z,30.19
2022-08-17T12:16:08.298Z,29.68
2022-08-17T12:18:42.040Z,29.64
2022-08-17T12:21:26.381Z,31.38
2022-08-17T12:24:00.213Z,30.62
2022-08-17T12:26:33.056Z,30.79
2022-08-17T12:29:05.906Z,30.05
2022-08-17T12:31:44.354Z,31.26
2022-08-17T12:34:17.135Z,30.62
2022-08-17T12:36:47.342Z,32.11
2022-08-17T12:39:21.766Z,30.68
2022-08-17T12:42:01.938Z,30.72
2022-08-17T12:44:35.166Z,31.33
2022-08-17T12:47:11.062Z,30.80
2022-08-17T12:49:42.259Z,32.46
2022-08-17T12:52:15.290Z,34.93
2022-08-17T12:54:50.700Z,31.21
2022-08-17T12:57:23.496Z,29.06
2022-08-17T12:59:59.523Z,28.02
2022-08-17T13:02:42.654Z,27.72
2022-08-17T13:05:21.576Z,27.20
2022-08-17T13:07:50.815Z,27.31
2022-08-17T13:10:25.526Z,27.63
2022-08-17T13:12:58.104Z,28.07
2022-08-17T13:15:33.893Z,27.76
2022-08-17T13:18:07.447Z,30.67
2022-08-17T13:20:36.948Z,29.79
2022-08-17T13:23:12.513Z,28.98
2022-08-17T13:25:41.351Z,30.13
2022-08-17T13:28:35.657Z,29.87
2022-08-17T13:31:33.007Z,30.22
2022-08-17T13:34:19.118Z,30.43
2022-08-17T13:36:48.889Z,30.59
2022-08-17T13:39:22.844Z,27.75
2022-08-17T13:41:53.991Z,27.95
2022-08-17T13:44:34.332Z,28.46
2022-08-17T13:47:05.746Z,28.17
2022-08-17T13:49:41.729Z,29.51
2022-08-17T13:52:37.923Z,28.38
2022-08-17T13:55:10.236Z,28.89
2022-08-17T13:57:38.832Z,29.37
2022-08-17T14:00:13.967Z,29.66
2022-08-17T14:02:44.042Z,29.47
2022-08-17T14:05:12.650Z,30.50
2022-08-17T14:07:41.317Z,32.00
2022-08-17T14:10:13.966Z,30.98
2022-08-17T14:12:44.648Z,31.51
2022-08-17T14:15:15.441Z,30.62
2022-08-17T14:17:45.318Z,29.25
2022-08-17T14:20:14.952Z,29.39
2022-08-17T14:22:46.614Z,28.29
2022-08-17T14:25:18.695Z,29.67
2022-08-17T14:27:52.942Z,30.57
2022-08-17T14:30:29.141Z,29.36
2022-08-17T14:33:02.090Z,28.13
2022-08-17T14:35:31.160Z,28.83
2022-08-17T14:37:59.688Z,29.58
2022-08-17T14:40:28.156Z,29.03
2022-08-17T14:42:58.477Z,29.98
2022-08-17T14:45:32.325Z,30.07
2022-08-17T14:48:07.951Z,29.77
2022-08-17T14:50:38.358Z,30.35
2022-08-17T14:53:08.784Z,30.94
2022-08-17T14:55:39.948Z,31.08
2022-08-17T14:58:09.020Z,31.32
2022-08-17T15:00:39.444Z,33.30
2022-08-17T15:03:11.470Z,34.14
2022-08-17T15:05:40.693Z,31.57
2022-08-17T15:08:09.311Z,32.21
2022-08-17T15:10:39.056Z,32.75
2022-08-17T15:13:18.168Z,32.63
2022-08-17T15:15:46.819Z,32.78
2022-08-17T15:18:17.508Z,31.45
2022-08-17T15:20:48.657Z,31.84
2022-08-17T15:23:19.977Z,33.79
2022-08-17T15:25:50.489Z,30.68
2022-08-17T15:28:20.597Z,31.70
2022-08-17T15:30:49.321Z,33.46
2022-08-17T15:33:22.324Z,33.84
2022-08-17T15:35:53.365Z,33.30
2022-08-17T15:38:23.531Z,31.10
2022-08-17T15:40:53.879Z,30.71
2022-08-17T15:43:27.975Z,30.21
2022-08-17T15:46:00.740Z,31.96
2022-08-17T15:48:42.210Z,31.63
2022-08-17T15:51:13.348Z,31.77
2022-08-17T15:53:43.649Z,32.51
2022-08-17T15:56:15.181Z,33.35
2022-08-17T15:58:46.742Z,32.90
2022-08-17T16:01:18.687Z,31.80
2022-08-17T16:04:26.370Z,31.20
2022-08-17T16:06:54.051Z,32.45
2022-08-17T16:09:23.056Z,33.38
2022-08-17T16:11:52.197Z,32.36
2022-08-17T16:14:24.124Z,31.58
2022-08-17T16:16:52.792Z,33.62
2022-08-17T16:19:25.291Z,32.97
2022-08-17T16:21:53.800Z,33.54
2022-08-17T16:24:22.358Z,34.13
2022-08-17T16:26:50.908Z,34.94
2022-08-17T16:29:19.558Z,35.87
2022-08-17T16:31:48.231Z,36.62
2022-08-17T16:34:18.891Z,34.72
2022-08-17T16:36:55.540Z,35.33
2022-08-17T16:39:29.082Z,35.23
2022-08-17T16:41:58.439Z,35.13
2022-08-17T16:44:29.046Z,35.16
2022-08-17T16:46:58.504Z,34.81
2022-08-17T16:49:36.694Z,34.65
2022-08-17T16:52:11.273Z,33.83
2022-08-17T16:54:43.731Z,35.22
2022-08-17T16:57:13.491Z,36.80
2022-08-17T16:59:47.767Z,36.17
2022-08-17T17:02:18.368Z,36.26
2022-08-17T17:04:53.179Z,35.74
2022-08-17T17:07:38.887Z,35.98
2022-08-17T17:10:11.937Z,35.91
2022-08-17T17:13:26.800Z,35.39
2022-08-17T17:28:56.782Z,38.56
2022-08-17T17:31:29.525Z,38.10
2022-08-17T17:34:00.901Z,38.65
2022-08-17T17:36:35.711Z,38.69
2022-08-17T17:39:07.492Z,39.10
2022-08-17T17:41:47.179Z,38.96
2022-08-17T17:44:19.703Z,38.94
2022-08-17T17:46:54.308Z,39.92
2022-08-17T17:49:23.295Z,38.95
2022-08-17T17:52:10.003Z,39.05
2022-08-17T17:55:03.179Z,39.47
2022-08-17T17:57:45.554Z,40.14
2022-08-17T18:00:17.954Z,42.29
2022-08-17T18:03:07.918Z,40.73
2022-08-17T18:05:49.958Z,40.44
2022-08-17T18:08:32.244Z,42.47
2022-08-17T18:11:24.129Z,42.88
2022-08-17T18:14:08.987Z,41.84
2022-08-17T18:16:37.637Z,42.94
2022-08-17T18:19:07.138Z,42.03
2022-08-17T18:21:38.205Z,41.76
2022-08-17T18:24:10.485Z,43.57
2022-08-17T18:26:47.970Z,43.44
2022-08-17T18:29:31.383Z,44.50
2022-08-17T18:32:23.605Z,43.34
2022-08-17T18:34:54.400Z,43.33
2022-08-17T18:37:47.718Z,43.63
2022-08-17T18:40:38.216Z,44.09
2022-08-17T18:43:13.396Z,44.71
2022-08-17T18:45:47.904Z,44.00
2022-08-17T18:48:23.666Z,44.18
2022-08-17T18:50:54.561Z,44.84
2022-08-17T18:53:33.143Z,43.27
2022-08-17T18:56:30.935Z,43.74
2022-08-17T18:59:25.187Z,43.99
2022-08-17T19:02:32.492Z,44.40
2022-08-17T19:05:13.331Z,44.28
2022-08-17T19:07:42.771Z,44.80
2022-08-17T19:10:24.552Z,45.15
2022-08-17T19:13:00.204Z,43.79
2022-08-17T19:15:35.169Z,45.04
2022-08-17T19:18:15.704Z,44.39
2022-08-17T19:20:48.840Z,44.78
2022-08-17T19:23:24.925Z,44.99
2022-08-17T19:25:58.431Z,46.01
2022-08-17T19:28:30.686Z,45.32
2022-08-17T19:31:03.069Z,45.05
2022-08-17T19:33:33.065Z,46.86
2022-08-17T19:36:09.186Z,45.15
2022-08-17T19:38:45.775Z,45.82
2022-08-17T19:41:23.777Z,45.56
2022-08-17T19:44:14.249Z,46.41
2022-08-17T19:46:56.163Z,46.39
2022-08-17T19:49:41.458Z,45.59
2022-08-17T19:52:24.148Z,46.80
2022-08-17T19:54:59.526Z,47.66
2022-08-17T19:57:49.100Z,46.95
2022-08-17T20:00:19.420Z,46.38
2022-08-17T20:02:55.015Z,47.46
2022-08-17T20:05:37.277Z,47.65
2022-08-17T20:08:21.878Z,46.87
2022-08-17T20:10:55.372Z,47.51
2022-08-17T20:13:33.515Z,48.69
2022-08-17T20:16:03.149Z,48.87
2022-08-17T20:18:37.814Z,48.26
2022-08-17T20:21:19.970Z,50.10
2022-08-17T20:23:57.156Z,48.26
2022-08-17T20:26:29.274Z,49.23
2022-08-17T20:29:37.423Z,49.60
2022-08-17T20:32:26.534Z,49.61
2022-08-17T20:35:19.267Z,48.90
2022-08-17T20:37:59.049Z,49.08
2022-08-17T20:40:34.689Z,48.99
2022-08-17T20:43:37.021Z,49.05
2022-08-17T20:46:13.942Z,49.37
2022-08-17T20:48:45.823Z,51.41
2022-08-17T20:51:24.113Z,49.13
2022-08-17T20:54:36.634Z,49.31
2022-08-17T20:57:06.088Z,49.69
2022-08-17T21:00:02.793Z,49.73
2022-08-17T21:02:32.345Z,49.60
2022-08-17T21:05:30.237Z,49.79
2022-08-17T21:08:02.516Z,49.09
2022-08-17T21:10:37.601Z,49.00
2022-08-17T21:13:32.968Z,49.74
2022-08-17T21:16:08.783Z,49.78
2022-08-17T21:18:42.834Z,50.15
2022-08-17T21:21:24.026Z,49.95
2022-08-17T21:24:07.954Z,50.85
2022-08-17T21:26:51.093Z,50.89
2022-08-17T21:29:31.859Z,50.70
2022-08-17T21:32:25.177Z,50.81
2022-08-17T21:35:23.493Z,51.34
2022-08-17T21:37:56.740Z,51.43
2022-08-17T21:40:27.853Z,52.08
2022-08-17T21:43:01.477Z,51.78
2022-08-17T21:45:35.082Z,52.10
2022-08-17T21:48:14.961Z,51.90
2022-08-17T21:50:57.201Z,52.37
2022-08-17T21:53:33.429Z,53.02
2022-08-17T21:56:02.214Z,54.19
2022-08-17T21:58:36.021Z,53.91
2022-08-17T22:01:21.060Z,54.01
2022-08-17T22:03:57.853Z,54.33
2022-08-17T22:06:29.713Z,54.29
2022-08-17T22:09:00.881Z,55.20
2022-08-17T22:11:29.420Z,54.93
2022-08-17T22:14:05.306Z,55.36
2022-08-17T22:16:34.856Z,56.25
2022-08-17T22:19:06.545Z,56.25
2022-08-17T22:21:35.023Z,56.29
2022-08-17T22:24:06.618Z,56.78
2022-08-17T22:27:02.768Z,57.56
2022-08-17T22:29:48.535Z,57.32
2022-08-17T22:32:38.644Z,57.62
2022-08-17T22:35:18.233Z,57.40
2022-08-17T22:37:46.742Z,57.80
2022-08-17T22:40:26.226Z,57.81
2022-08-17T22:42:54.733Z,57.85
2022-08-17T22:45:25.246Z,58.96
2022-08-17T22:47:56.540Z,58.42
2022-08-17T22:50:27.774Z,59.22
2022-08-17T22:53:19.782Z,59.07
2022-08-17T22:56:11.286Z,59.26
2022-08-17T22:59:06.569Z,59.94
2022-08-17T23:01:36.586Z,59.57
2022-08-17T23:04:08.169Z,60.21
2022-08-17T23:06:39.662Z,60.50
2022-08-17T23:09:08.717Z,60.63
2022-08-17T23:11:49.307Z,60.78
2022-08-17T23:14:20.785Z,60.72
2022-08-17T23:16:51.259Z,60.59
2022-08-17T23:19:22.432Z,60.71
2022-08-17T23:21:55.364Z,60.71
2022-08-17T23:24:27.445Z,60.46
2022-08-17T23:26:57.311Z,60.86
2022-08-17T23:29:26.291Z,60.60
2022-08-17T23:31:59.820Z,61.00
2022-08-17T23:34:29.283Z,61.13
2022-08-17T23:36:57.931Z,61.16
2022-08-17T23:39:28.010Z,61.53
2022-08-17T23:41:58.293Z,61.79
2022-08-17T23:44:26.980Z,61.56
2022-08-17T23:46:57.231Z,62.46
2022-08-17T23:49:26.158Z,61.88
2022-08-17T23:51:54.743Z,62.07
2022-08-17T23:54:27.995Z,62.06
2022-08-17T23:56:56.574Z,61.99
2022-08-17T23:59:26.970Z,62.06
